createdAt,value
2019-04-16T00:03:31.761Z,6.00
2019-04-16T00:06:24.149Z,5.90
2019-04-16T00:09:07.212Z,5.80
2019-04-16T00:12:03.065Z,5.70
2019-04-16T00:14:49.738Z,5.70
2019-04-16T00:17:52.259Z,5.70
2019-04-16T00:20:47.866Z,5.70
2019-04-16T00:23:40.810Z,5.60
2019-04-16T00:26:30.186Z,5.70
2019-04-16T00:32:37.928Z,5.60
2019-04-16T00:35:27.599Z,5.70
2019-04-16T00:38:14.260Z,5.70
2019-04-16T00:41:18.514Z,5.80
2019-04-16T00:47:40.241Z,5.50
2019-04-16T00:50:41.989Z,5.20
2019-04-16T00:56:34.781Z,4.80
2019-04-16T00:59:34.915Z,4.60
2019-04-16T01:02:53.510Z,4.60
2019-04-16T01:05:51.443Z,4.50
2019-04-16T01:08:54.749Z,4.60
2019-04-16T01:11:56.831Z,4.50
2019-04-16T01:14:33.417Z,4.60
2019-04-16T01:17:29.799Z,4.40
2019-04-16T01:20:30.296Z,4.30
2019-04-16T01:23:31.236Z,4.40
2019-04-16T01:26:21.034Z,4.40
2019-04-16T01:29:14.345Z,4.40
2019-04-16T01:32:20.306Z,4.30
2019-04-16T01:35:23.643Z,4.50
2019-04-16T01:38:19.266Z,4.50
2019-04-16T01:41:04.120Z,4.30
2019-04-16T01:44:08.507Z,4.20
2019-04-16T01:47:03.789Z,4.30
2019-04-16T01:49:49.917Z,4.40
2019-04-16T01:52:59.395Z,4.30
2019-04-16T01:55:49.102Z,4.30
2019-04-16T01:58:33.557Z,4.40
2019-04-16T02:01:27.959Z,4.30
2019-04-16T02:04:22.300Z,4.30
2019-04-16T02:07:07.510Z,4.20
2019-04-16T02:10:06.422Z,4.20
2019-04-16T02:19:16.739Z,4.00
2019-04-16T02:21:54.412Z,4.00
2019-04-16T02:24:28.668Z,3.80
2019-04-16T02:27:14.037Z,3.70
2019-04-16T02:29:58.604Z,3.60
2019-04-16T02:32:52.123Z,3.60
2019-04-16T02:36:02.656Z,3.60
2019-04-16T02:39:03.666Z,3.50
2019-04-16T02:41:58.458Z,3.60
2019-04-16T02:44:57.688Z,3.70
2019-04-16T02:47:43.356Z,3.60
2019-04-16T02:51:04.922Z,3.70
2019-04-16T02:54:03.699Z,3.60
2019-04-16T02:57:26.303Z,3.70
2019-04-16T02:59:59.665Z,3.70
2019-04-16T03:02:55.530Z,3.50
2019-04-16T03:06:37.751Z,3.50
2019-04-16T03:09:27.028Z,3.40
2019-04-16T03:12:28.457Z,3.40
2019-04-16T03:18:22.517Z,3.40
2019-04-16T03:21:06.970Z,3.60
2019-04-16T03:23:55.517Z,3.50
2019-04-16T03:26:40.542Z,3.40
2019-04-16T03:32:57.166Z,3.30
2019-04-16T03:35:41.826Z,3.30
2019-04-16T03:38:38.706Z,3.30
2019-04-16T03:41:44.954Z,3.30
2019-04-16T03:44:45.281Z,3.20
2019-04-16T03:47:41.387Z,3.20
2019-04-16T03:50:33.925Z,3.10
2019-04-16T03:53:27.053Z,3.20
2019-04-16T03:56:18.521Z,3.00
2019-04-16T03:59:12.551Z,3.00
2019-04-16T04:02:09.846Z,2.90
2019-04-16T04:05:06.481Z,2.90
2019-04-16T04:07:49.252Z,2.80
2019-04-16T04:13:55.999Z,2.70
2019-04-16T04:16:39.398Z,2.80
2019-04-16T04:22:28.752Z,2.90
2019-04-16T04:25:24.036Z,3.00
2019-04-16T04:28:09.290Z,3.00
2019-04-16T04:31:23.778Z,2.90
2019-04-16T04:34:30.604Z,2.90
2019-04-16T04:37:33.220Z,2.90
2019-04-16T04:40:28.591Z,2.90
2019-04-16T04:43:29.338Z,2.80
2019-04-16T04:46:32.663Z,2.90
2019-04-16T04:49:30.094Z,2.90
2019-04-16T04:52:28.665Z,2.80
2019-04-16T04:55:20.406Z,2.90
2019-04-16T04:58:02.808Z,2.90
2019-04-16T05:00:59.231Z,3.00
2019-04-16T05:04:18.958Z,3.00
2019-04-16T05:06:57.242Z,3.10
2019-04-16T05:09:47.467Z,3.10
2019-04-16T05:12:53.716Z,3.10
2019-04-16T05:15:53.031Z,3.20
2019-04-16T05:18:43.309Z,3.20
2019-04-16T05:21:27.749Z,3.20
2019-04-16T05:24:14.658Z,3.20
2019-04-16T05:33:41.718Z,3.30
2019-04-16T05:36:31.628Z,3.40
2019-04-16T05:39:32.281Z,3.40
2019-04-16T05:42:16.971Z,3.40
2019-04-16T05:48:25.559Z,3.50
2019-04-16T05:51:14.528Z,3.60
2019-04-16T05:53:59.502Z,3.70
2019-04-16T05:56:47.952Z,3.70
2019-04-16T05:59:45.676Z,3.80
2019-04-16T06:02:50.514Z,3.80
2019-04-16T06:05:56.303Z,3.90
2019-04-16T06:09:04.483Z,4.00
2019-04-16T06:12:25.082Z,4.20
2019-04-16T06:15:15.457Z,4.30
2019-04-16T06:18:12.319Z,4.40
2019-04-16T06:21:34.811Z,4.40
2019-04-16T06:24:26.660Z,4.50
2019-04-16T06:30:44.813Z,4.90
2019-04-16T06:33:52.675Z,5.00
2019-04-16T06:37:12.783Z,5.10
2019-04-16T06:43:27.490Z,5.20
2019-04-16T06:46:59.963Z,5.40
2019-04-16T06:50:11.220Z,5.50
2019-04-16T06:53:19.879Z,5.60
2019-04-16T06:56:32.436Z,5.80
2019-04-16T06:59:49.062Z,6.00
2019-04-16T07:03:02.274Z,6.10
2019-04-16T07:06:09.233Z,6.20
2019-04-16T07:09:25.776Z,6.40
2019-04-16T07:12:34.875Z,6.60
2019-04-16T07:15:14.382Z,6.60
2019-04-16T07:18:06.656Z,6.70
2019-04-16T07:20:53.518Z,6.90
2019-04-16T07:23:37.967Z,7.00
2019-04-16T07:26:39.499Z,7.20
2019-04-16T07:29:40.862Z,7.20
2019-04-16T07:32:46.982Z,7.40
2019-04-16T07:35:37.033Z,7.40
2019-04-16T07:38:51.384Z,7.50
2019-04-16T07:41:45.095Z,7.60
2019-04-16T07:44:39.391Z,7.70
2019-04-16T07:47:48.284Z,7.70
2019-04-16T07:51:21.940Z,7.80
2019-04-16T07:57:36.595Z,8.00
2019-04-16T08:00:41.311Z,8.10
2019-04-16T08:03:31.996Z,8.30
2019-04-16T08:06:25.665Z,8.20
2019-04-16T08:09:11.941Z,8.30
2019-04-16T08:11:55.733Z,8.40
2019-04-16T08:15:13.291Z,8.50
2019-04-16T08:18:04.251Z,8.70
2019-04-16T08:21:11.875Z,8.80
2019-04-16T08:24:01.144Z,9.00
2019-04-16T08:26:50.823Z,9.10
2019-04-16T08:29:47.708Z,9.30
2019-04-16T08:32:52.068Z,9.50
2019-04-16T08:35:36.808Z,9.50
2019-04-16T08:38:39.483Z,9.60
2019-04-16T08:41:52.349Z,9.80
2019-04-16T08:45:01.512Z,9.90
2019-04-16T08:48:04.033Z,10.00
2019-04-16T08:51:14.118Z,10.10
2019-04-16T08:54:03.992Z,10.10
2019-04-16T08:57:19.335Z,10.30
2019-04-16T09:00:04.782Z,10.40
2019-04-16T09:02:52.028Z,10.60
2019-04-16T09:05:48.797Z,10.70
2019-04-16T09:09:12.439Z,10.70
2019-04-16T09:12:00.126Z,10.90
2019-04-16T09:15:16.587Z,11.10
2019-04-16T09:18:37.204Z,11.10
2019-04-16T09:21:44.366Z,11.30
2019-04-16T09:24:43.264Z,11.20
2019-04-16T09:27:52.178Z,11.30
2019-04-16T09:30:52.932Z,11.40
2019-04-16T09:33:59.024Z,11.40
2019-04-16T09:37:13.058Z,11.30
2019-04-16T09:40:40.886Z,11.30
2019-04-16T09:43:29.323Z,11.50
2019-04-16T09:49:51.078Z,11.70
2019-04-16T09:52:56.555Z,11.70
2019-04-16T09:56:14.874Z,12.00
2019-04-16T10:02:37.624Z,11.90
2019-04-16T10:05:49.987Z,11.90
2019-04-16T10:08:36.283Z,12.00
2019-04-16T10:11:40.325Z,12.30
2019-04-16T10:14:30.066Z,12.00
2019-04-16T10:17:22.735Z,12.20
2019-04-16T10:23:44.792Z,12.60
2019-04-16T10:26:42.390Z,12.60
2019-04-16T10:30:15.784Z,12.50
2019-04-16T10:32:44.160Z,12.70
2019-04-16T10:35:30.134Z,13.00
2019-04-16T10:38:51.752Z,13.00
2019-04-16T10:42:07.772Z,12.90
2019-04-16T10:45:45.991Z,12.90
2019-04-16T10:48:59.278Z,13.00
2019-04-16T10:52:01.127Z,13.20
2019-04-16T11:01:59.184Z,13.50
2019-04-16T11:05:27.647Z,13.60
2019-04-16T11:08:18.373Z,13.40
2019-04-16T11:11:15.056Z,13.60
2019-04-16T11:14:00.544Z,13.70
2019-04-16T11:17:02.804Z,13.80
2019-04-16T11:19:55.887Z,13.90
2019-04-16T11:22:46.882Z,13.90
2019-04-16T11:26:10.989Z,14.00
2019-04-16T11:29:13.265Z,13.90
2019-04-16T11:32:14.982Z,13.90
2019-04-16T11:35:08.713Z,14.10
2019-04-16T11:40:54.276Z,14.40
2019-04-16T11:43:52.844Z,14.50
2019-04-16T11:50:10.279Z,14.40
2019-04-16T11:53:09.239Z,14.50
2019-04-16T11:56:22.381Z,14.70
2019-04-16T11:59:07.894Z,14.80
2019-04-16T12:02:22.035Z,15.00
2019-04-16T12:05:28.139Z,14.80
2019-04-16T12:08:24.611Z,14.80
2019-04-16T12:11:50.128Z,15.10
2019-04-16T12:14:52.359Z,15.10
2019-04-16T12:18:07.458Z,15.10
2019-04-16T12:21:14.332Z,15.30
2019-04-16T12:24:41.659Z,15.30
2019-04-16T12:27:51.145Z,15.30
2019-04-16T12:31:17.163Z,15.50
2019-04-16T12:34:38.249Z,15.80
2019-04-16T12:37:40.969Z,15.60
2019-04-16T12:40:42.615Z,15.60
2019-04-16T12:44:10.231Z,15.80
2019-04-16T12:47:12.533Z,16.00
2019-04-16T12:50:23.566Z,16.10
2019-04-16T12:56:53.452Z,15.80
2019-04-16T13:00:31.811Z,15.90
2019-04-16T13:03:33.334Z,16.10
2019-04-16T13:06:58.445Z,16.20
2019-04-16T13:10:12.230Z,16.40
2019-04-16T13:13:44.448Z,16.10
2019-04-16T13:17:05.050Z,16.30
2019-04-16T13:20:29.499Z,16.30
2019-04-16T13:23:41.786Z,16.40
2019-04-16T13:27:14.546Z,16.50
2019-04-16T13:30:14.279Z,16.70
2019-04-16T13:33:29.390Z,16.80
2019-04-16T13:36:26.496Z,16.70
2019-04-16T13:39:29.825Z,16.80
2019-04-16T13:42:48.809Z,16.70
2019-04-16T13:46:00.705Z,17.00
2019-04-16T13:49:31.359Z,17.20
2019-04-16T13:52:31.245Z,16.80
2019-04-16T13:55:50.539Z,16.80
2019-04-16T13:58:44.504Z,17.00
2019-04-16T14:02:02.027Z,17.10
2019-04-16T14:05:11.273Z,17.20
2019-04-16T14:08:02.619Z,17.20
2019-04-16T14:11:01.123Z,17.00
2019-04-16T14:17:21.861Z,17.30
2019-04-16T14:20:19.281Z,17.40
2019-04-16T14:23:11.629Z,17.50
2019-04-16T14:26:31.834Z,17.60
2019-04-16T14:29:38.760Z,17.50
2019-04-16T14:32:14.949Z,17.50
2019-04-16T14:35:32.264Z,17.50
2019-04-16T14:38:38.949Z,17.60
2019-04-16T14:41:48.920Z,17.50
2019-04-16T14:48:16.459Z,17.80
2019-04-16T14:57:53.683Z,18.40
2019-04-16T15:01:14.705Z,18.80
2019-04-16T15:04:29.075Z,19.00
2019-04-16T15:10:44.345Z,18.50
2019-04-16T15:13:51.791Z,18.40
2019-04-16T15:17:03.695Z,18.40
2019-04-16T15:20:09.365Z,18.00
2019-04-16T15:26:52.784Z,18.40
2019-04-16T15:30:03.920Z,18.30
2019-04-16T15:33:38.766Z,18.40
2019-04-16T15:36:58.808Z,18.50
2019-04-16T15:40:12.467Z,18.60
2019-04-16T15:43:36.606Z,18.80
2019-04-16T15:47:18.789Z,18.70
2019-04-16T15:50:44.464Z,18.70
2019-04-16T15:53:42.316Z,18.50
2019-04-16T15:57:07.993Z,18.80
2019-04-16T16:00:21.761Z,19.10
2019-04-16T16:07:14.240Z,19.00
2019-04-16T16:10:24.211Z,18.90
2019-04-16T16:13:35.275Z,19.40
2019-04-16T16:16:41.888Z,19.20
2019-04-16T16:19:24.242Z,18.90
2019-04-16T16:22:22.727Z,18.40
2019-04-16T16:25:20.191Z,18.40
2019-04-16T16:28:22.808Z,18.70
2019-04-16T16:31:17.897Z,18.60
2019-04-16T16:34:40.811Z,18.70
2019-04-16T16:37:23.946Z,18.70
2019-04-16T16:40:14.755Z,18.70
2019-04-16T16:43:26.302Z,18.70
2019-04-16T16:47:01.466Z,18.30
2019-04-16T16:49:50.542Z,18.70
2019-04-16T16:56:28.300Z,18.50
2019-04-16T16:59:47.929Z,18.40
2019-04-16T17:03:14.973Z,18.00
2019-04-16T17:09:11.406Z,17.90
2019-04-16T17:12:01.378Z,17.80
2019-04-16T17:15:03.977Z,17.90
2019-04-16T17:21:26.122Z,17.50
2019-04-16T17:24:17.827Z,17.50
2019-04-16T17:27:20.840Z,17.50
2019-04-16T17:30:22.175Z,17.50
2019-04-16T17:33:15.192Z,17.10
2019-04-16T17:36:20.525Z,16.50
2019-04-16T17:38:53.899Z,16.40
2019-04-16T17:41:47.217Z,16.50
2019-04-16T17:44:46.220Z,16.30
2019-04-16T17:47:55.524Z,16.20
2019-04-16T17:50:51.035Z,15.90
2019-04-16T17:53:53.229Z,15.60
2019-04-16T17:56:58.710Z,15.40
2019-04-16T17:59:44.311Z,15.10
2019-04-16T18:03:07.161Z,14.90
2019-04-16T18:09:42.755Z,14.50
2019-04-16T18:13:08.007Z,14.30
2019-04-16T18:16:09.312Z,14.00
2019-04-16T18:19:27.540Z,13.90
2019-04-16T18:22:45.038Z,13.70
2019-04-16T18:25:56.822Z,13.50
2019-04-16T18:28:41.607Z,13.30
2019-04-16T18:35:01.604Z,13.20
2019-04-16T18:38:24.341Z,13.00
2019-04-16T18:41:32.916Z,13.00
2019-04-16T18:44:56.168Z,12.80
2019-04-16T18:51:02.009Z,12.80
2019-04-16T18:56:42.850Z,12.60
2019-04-16T18:59:51.724Z,12.50
2019-04-16T19:03:03.897Z,12.50
2019-04-16T19:05:50.041Z,12.60
2019-04-16T19:08:42.053Z,12.50
2019-04-16T19:12:06.688Z,12.50
2019-04-16T19:15:18.014Z,12.50
2019-04-16T19:18:19.053Z,12.40
2019-04-16T19:20:57.419Z,12.30
2019-04-16T19:24:17.080Z,12.00
2019-04-16T19:27:22.070Z,11.90
2019-04-16T19:30:16.002Z,11.80
2019-04-16T19:33:08.707Z,11.90
2019-04-16T19:39:20.416Z,11.80
2019-04-16T19:42:03.362Z,11.70
2019-04-16T19:45:12.026Z,11.80
2019-04-16T19:48:11.343Z,11.70
2019-04-16T19:50:50.575Z,11.70
2019-04-16T19:53:44.596Z,11.50
2019-04-16T19:56:28.015Z,11.50
2019-04-16T19:59:55.502Z,11.50
2019-04-16T20:02:40.737Z,11.50
2019-04-16T20:05:36.995Z,11.30
2019-04-16T20:08:39.851Z,11.10
2019-04-16T20:11:26.238Z,11.00
2019-04-16T20:14:35.321Z,10.90
2019-04-16T20:20:38.052Z,11.00
2019-04-16T20:26:20.947Z,10.70
2019-04-16T20:29:09.077Z,10.60
2019-04-16T20:32:09.815Z,10.60
2019-04-16T20:35:09.334Z,10.30
2019-04-16T20:38:09.621Z,10.20
2019-04-16T20:41:04.301Z,10.10
2019-04-16T20:43:50.081Z,9.90
2019-04-16T20:47:08.584Z,9.70
2019-04-16T20:50:45.541Z,9.80
2019-04-16T20:53:59.767Z,9.80
2019-04-16T20:57:08.767Z,9.80
2019-04-16T21:00:29.230Z,9.80
2019-04-16T21:03:30.887Z,9.60
2019-04-16T21:06:41.249Z,9.50
2019-04-16T21:09:26.792Z,9.50
2019-04-16T21:12:37.073Z,9.40
2019-04-16T21:15:27.356Z,9.40
2019-04-16T21:18:30.856Z,9.20
2019-04-16T21:21:24.318Z,9.20
2019-04-16T21:24:20.862Z,9.00
2019-04-16T21:27:13.272Z,8.90
2019-04-16T21:30:16.042Z,8.80
2019-04-16T21:33:07.454Z,8.80
2019-04-16T21:36:06.167Z,8.70
2019-04-16T21:39:20.145Z,8.50
2019-04-16T21:42:31.617Z,8.40
2019-04-16T21:45:29.077Z,8.40
2019-04-16T21:48:23.869Z,8.50
2019-04-16T21:51:25.623Z,8.50
2019-04-16T21:54:11.037Z,8.50
2019-04-16T21:57:28.716Z,8.50
2019-04-16T22:00:52.483Z,8.30
2019-04-16T22:03:51.758Z,8.20
2019-04-16T22:06:38.066Z,8.10
2019-04-16T22:09:21.271Z,8.10
2019-04-16T22:12:47.592Z,8.10
2019-04-16T22:15:29.782Z,8.20
2019-04-16T22:18:15.853Z,8.30
2019-04-16T22:20:53.349Z,8.30
2019-04-16T22:23:57.164Z,8.20
2019-04-16T22:26:49.487Z,8.30
2019-04-16T22:29:49.160Z,8.30
2019-04-16T22:36:32.728Z,8.50
2019-04-16T22:39:40.531Z,8.70
2019-04-16T22:43:12.246Z,8.80
2019-04-16T22:46:22.162Z,8.70
2019-04-16T22:49:47.337Z,8.70
2019-04-16T22:52:34.186Z,8.80
2019-04-16T22:55:56.269Z,8.80
2019-04-16T22:58:53.040Z,8.80
2019-04-16T23:01:44.864Z,8.90
2019-04-16T23:04:38.203Z,8.90
2019-04-16T23:07:39.678Z,8.90
2019-04-16T23:10:21.175Z,9.00
2019-04-16T23:13:15.800Z,8.90
2019-04-16T23:16:02.226Z,9.00
2019-04-16T23:18:49.296Z,9.00
2019-04-16T23:21:42.565Z,9.00
2019-04-16T23:24:26.384Z,9.00
2019-04-16T23:27:28.581Z,8.90
2019-04-16T23:30:15.754Z,8.90
2019-04-16T23:33:08.334Z,8.80
2019-04-16T23:35:53.574Z,9.00
2019-04-16T23:38:43.008Z,9.10
2019-04-16T23:41:57.924Z,8.90
2019-04-16T23:45:20.272Z,9.20
2019-04-16T23:54:45.469Z,9.00
2019-04-16T23:58:07.098Z,9.10
